createdAt,value
2023-10-29T00:01:44.144Z,81.31
2023-10-29T00:04:14.977Z,81.16
2023-10-29T00:06:43.260Z,81.34
2023-10-29T00:09:11.069Z,81.29
2023-10-29T00:11:38.668Z,81.50
2023-10-29T00:14:07.692Z,81.50
2023-10-29T00:16:35.477Z,81.85
2023-10-29T00:19:03.332Z,81.84
2023-10-29T00:21:35.722Z,82.01
2023-10-29T00:24:03.671Z,81.97
2023-10-29T00:26:31.302Z,82.31
2023-10-29T00:28:58.932Z,82.15
2023-10-29T00:31:26.651Z,82.33
2023-10-29T00:33:55.793Z,82.38
2023-10-29T00:36:23.603Z,82.81
2023-10-29T00:38:52.488Z,82.90
2023-10-29T00:41:20.091Z,82.82
2023-10-29T00:43:50.988Z,82.91
2023-10-29T00:46:18.889Z,83.19
2023-10-29T00:48:47.405Z,83.25
2023-10-29T00:51:16.186Z,83.29
2023-10-29T00:53:44.518Z,83.03
2023-10-29T00:56:14.190Z,83.00
2023-10-29T00:58:42.781Z,83.29
2023-10-29T01:01:10.360Z,83.18
2023-10-29T01:03:38.204Z,83.50
2023-10-29T01:06:06.177Z,83.64
2023-10-29T01:08:33.878Z,83.50
2023-10-29T01:11:01.594Z,83.73
2023-10-29T01:13:29.514Z,83.91
2023-10-29T01:15:56.976Z,83.80
2023-10-29T01:18:24.801Z,84.04
2023-10-29T01:20:52.491Z,84.17
2023-10-29T01:23:20.153Z,83.96
2023-10-29T01:25:48.364Z,84.20
2023-10-29T01:28:15.959Z,84.45
2023-10-29T01:30:43.888Z,84.34
2023-10-29T01:33:11.623Z,84.59
2023-10-29T01:35:39.286Z,84.69
2023-10-29T01:38:06.863Z,84.77
2023-10-29T01:40:34.694Z,84.95
2023-10-29T01:43:02.292Z,85.06
2023-10-29T01:45:30.943Z,84.99
2023-10-29T01:47:58.640Z,85.05
2023-10-29T01:50:26.528Z,85.06
2023-10-29T01:52:55.335Z,84.71
2023-10-29T01:55:23.062Z,85.20
2023-10-29T01:57:50.618Z,85.37
2023-10-29T02:00:20.435Z,85.21
2023-10-29T02:02:48.901Z,85.37
2023-10-29T02:05:16.739Z,85.34
2023-10-29T02:07:45.274Z,85.80
2023-10-29T02:10:12.981Z,85.79
2023-10-29T02:12:40.737Z,85.64
2023-10-29T02:15:09.159Z,85.76
2023-10-29T02:17:36.911Z,86.04
2023-10-29T02:20:06.824Z,86.02
2023-10-29T02:22:34.738Z,85.71
2023-10-29T02:25:02.541Z,85.80
2023-10-29T02:27:30.753Z,85.68
2023-10-29T02:29:58.315Z,85.91
2023-10-29T02:32:26.202Z,85.86
2023-10-29T02:34:54.709Z,86.19
2023-10-29T02:37:22.699Z,86.48
2023-10-29T02:39:50.343Z,86.28
2023-10-29T02:42:18.563Z,86.33
2023-10-29T02:44:46.389Z,86.47
2023-10-29T02:47:14.180Z,86.51
2023-10-29T02:49:41.734Z,86.07
2023-10-29T02:52:09.287Z,85.97
2023-10-29T02:54:36.877Z,86.20
2023-10-29T02:57:07.540Z,85.89
2023-10-29T02:59:35.442Z,86.14
2023-10-29T03:02:03.236Z,86.13
2023-10-29T03:04:30.843Z,86.02
2023-10-29T03:06:58.613Z,86.26
2023-10-29T03:09:26.247Z,86.26
2023-10-29T03:11:53.885Z,86.08
2023-10-29T03:14:21.564Z,86.35
2023-10-29T03:16:49.220Z,86.20
2023-10-29T03:19:16.759Z,86.01
2023-10-29T03:21:44.311Z,85.75
2023-10-29T03:24:11.927Z,86.33
2023-10-29T03:26:40.095Z,86.26
2023-10-29T03:29:07.663Z,85.83
2023-10-29T03:31:36.204Z,86.02
2023-10-29T03:34:04.787Z,86.13
2023-10-29T03:36:32.339Z,86.25
2023-10-29T03:39:00.010Z,85.93
2023-10-29T03:41:28.052Z,86.16
2023-10-29T03:43:55.662Z,85.93
2023-10-29T03:46:24.159Z,85.90
2023-10-29T03:48:51.693Z,85.90
2023-10-29T03:51:19.708Z,85.84
2023-10-29T03:53:47.993Z,85.69
2023-10-29T03:56:15.523Z,86.00
2023-10-29T03:58:43.000Z,85.59
2023-10-29T04:01:14.348Z,85.71
2023-10-29T04:03:45.119Z,85.96
2023-10-29T04:06:13.365Z,85.82
2023-10-29T04:08:41.057Z,86.10
2023-10-29T04:11:09.551Z,86.21
2023-10-29T04:13:37.225Z,86.32
2023-10-29T04:16:04.894Z,86.27
2023-10-29T04:18:33.285Z,85.83
2023-10-29T04:21:09.622Z,85.92
2023-10-29T04:23:38.049Z,85.90
2023-10-29T04:26:05.755Z,86.22
2023-10-29T04:28:33.535Z,85.82
2023-10-29T04:31:01.673Z,86.11
2023-10-29T04:33:29.947Z,85.79
2023-10-29T04:35:57.622Z,85.70
2023-10-29T04:38:25.379Z,85.64
2023-10-29T04:40:53.394Z,85.46
2023-10-29T04:43:21.012Z,85.43
2023-10-29T04:45:48.766Z,85.63
2023-10-29T04:48:17.793Z,85.77
2023-10-29T04:50:45.508Z,85.62
2023-10-29T04:53:13.121Z,85.62
2023-10-29T04:55:40.784Z,85.71
2023-10-29T04:58:08.387Z,85.54
2023-10-29T05:00:35.970Z,85.91
2023-10-29T05:03:04.219Z,85.44
2023-10-29T05:05:32.212Z,85.38
2023-10-29T05:08:00.209Z,85.44
2023-10-29T05:10:29.667Z,85.40
2023-10-29T05:12:57.971Z,85.48
2023-10-29T05:15:26.383Z,85.62
2023-10-29T05:17:54.136Z,85.58
2023-10-29T05:20:21.891Z,85.26
2023-10-29T05:22:49.621Z,85.50
2023-10-29T05:25:17.238Z,85.31
2023-10-29T05:27:55.923Z,85.23
2023-10-29T05:30:24.342Z,85.39
2023-10-29T05:32:51.915Z,85.47
2023-10-29T05:35:21.356Z,84.98
2023-10-29T05:37:49.038Z,84.93
2023-10-29T05:40:17.243Z,84.79
2023-10-29T05:42:44.839Z,84.84
2023-10-29T05:45:12.745Z,84.64
2023-10-29T05:47:40.421Z,84.40
2023-10-29T05:50:08.579Z,84.79
2023-10-29T05:52:36.244Z,84.72
2023-10-29T05:55:05.250Z,84.65
2023-10-29T05:57:35.926Z,84.73
2023-10-29T06:00:04.277Z,84.69
2023-10-29T06:02:32.069Z,84.92
2023-10-29T06:04:59.738Z,84.90
2023-10-29T06:07:27.366Z,84.71
2023-10-29T06:09:54.917Z,84.50
2023-10-29T06:12:22.622Z,84.05
2023-10-29T06:14:50.511Z,84.15
2023-10-29T06:17:26.813Z,84.04
2023-10-29T06:19:54.902Z,84.23
2023-10-29T06:22:23.231Z,84.05
2023-10-29T06:24:50.774Z,83.84
2023-10-29T06:27:18.281Z,84.02
2023-10-29T06:29:46.080Z,83.84
2023-10-29T06:32:13.786Z,83.60
2023-10-29T06:34:41.466Z,83.60
2023-10-29T06:37:08.968Z,83.40
2023-10-29T06:39:36.866Z,83.21
2023-10-29T06:42:04.737Z,83.20
2023-10-29T06:44:32.602Z,83.05
2023-10-29T06:47:00.724Z,82.55
2023-10-29T06:49:28.686Z,82.95
2023-10-29T06:51:56.575Z,82.87
2023-10-29T06:54:24.563Z,82.61
2023-10-29T06:56:52.193Z,82.41
2023-10-29T06:59:20.243Z,82.91
2023-10-29T07:01:48.770Z,82.54
2023-10-29T07:04:16.745Z,82.46
2023-10-29T07:06:45.523Z,82.25
2023-10-29T07:09:16.536Z,82.44
2023-10-29T07:11:44.694Z,82.45
2023-10-29T07:14:13.581Z,82.16
2023-10-29T07:16:45.481Z,82.28
2023-10-29T07:19:18.181Z,81.98
2023-10-29T07:21:46.136Z,82.27
2023-10-29T07:24:13.662Z,82.00
2023-10-29T07:26:42.300Z,81.65
2023-10-29T07:29:09.853Z,81.60
2023-10-29T07:31:37.854Z,81.72
2023-10-29T07:34:05.498Z,81.14
2023-10-29T07:36:33.551Z,81.14
2023-10-29T07:39:01.160Z,81.28
2023-10-29T07:41:32.703Z,81.23
2023-10-29T07:44:00.222Z,81.14
2023-10-29T07:46:27.814Z,80.95
2023-10-29T07:48:56.811Z,80.92
2023-10-29T07:51:24.489Z,81.06
2023-10-29T07:53:52.879Z,80.86
2023-10-29T07:56:22.264Z,80.60
2023-10-29T07:58:50.471Z,80.76
2023-10-29T08:01:18.394Z,80.55
2023-10-29T08:03:47.351Z,80.01
2023-10-29T08:06:15.481Z,79.77
2023-10-29T08:08:43.264Z,79.52
2023-10-29T08:11:20.824Z,79.12
2023-10-29T08:13:49.406Z,79.43
2023-10-29T08:16:17.089Z,79.06
2023-10-29T08:18:44.895Z,79.08
2023-10-29T08:21:12.929Z,78.85
2023-10-29T08:23:40.575Z,79.11
2023-10-29T08:26:08.231Z,78.80
2023-10-29T08:28:37.353Z,78.43
2023-10-29T08:31:05.863Z,77.88
2023-10-29T08:33:33.630Z,77.61
2023-10-29T08:36:02.171Z,77.08
2023-10-29T08:38:30.062Z,76.62
2023-10-29T08:40:57.758Z,76.43
2023-10-29T08:43:25.762Z,76.39
2023-10-29T08:45:53.455Z,76.17
2023-10-29T08:48:21.599Z,76.03
2023-10-29T08:50:49.841Z,76.21
2023-10-29T08:53:17.374Z,75.52
2023-10-29T08:55:45.009Z,75.32
2023-10-29T08:58:13.089Z,75.69
2023-10-29T09:00:46.334Z,76.35
2023-10-29T09:03:16.456Z,76.65
2023-10-29T09:05:44.828Z,77.16
2023-10-29T09:08:14.000Z,77.71
2023-10-29T09:10:44.561Z,78.00
2023-10-29T09:13:12.747Z,77.88
2023-10-29T09:15:40.733Z,78.43
2023-10-29T09:18:08.579Z,77.91
2023-10-29T09:20:37.718Z,77.48
2023-10-29T09:23:06.291Z,76.23
2023-10-29T09:25:34.343Z,76.01
2023-10-29T09:28:06.387Z,75.59
2023-10-29T09:30:34.048Z,74.41
2023-10-29T09:33:01.764Z,73.99
2023-10-29T09:35:30.106Z,73.36
2023-10-29T09:37:58.067Z,73.75
2023-10-29T09:40:26.025Z,73.24
2023-10-29T09:43:00.220Z,72.92
2023-10-29T09:45:28.062Z,73.05
2023-10-29T09:47:57.227Z,72.92
2023-10-29T09:50:25.119Z,72.54
2023-10-29T09:52:56.504Z,72.16
2023-10-29T09:55:24.354Z,71.97
2023-10-29T09:57:52.190Z,71.38
2023-10-29T10:00:20.202Z,71.29
2023-10-29T10:02:51.154Z,70.54
2023-10-29T10:05:21.361Z,70.68
2023-10-29T10:07:49.959Z,70.35
2023-10-29T10:10:20.699Z,69.99
2023-10-29T10:12:52.574Z,69.81
2023-10-29T10:15:21.186Z,69.76
2023-10-29T10:17:57.667Z,69.39
2023-10-29T10:20:25.833Z,69.32
2023-10-29T10:23:08.248Z,69.00
2023-10-29T10:25:36.501Z,70.15
2023-10-29T10:28:05.707Z,69.57
2023-10-29T10:30:42.129Z,68.63
2023-10-29T10:33:20.737Z,69.25
2023-10-29T10:35:56.159Z,69.73
2023-10-29T10:38:24.046Z,68.91
2023-10-29T10:41:01.179Z,68.76
2023-10-29T10:43:29.615Z,69.49
2023-10-29T10:46:00.000Z,69.35
2023-10-29T10:48:28.891Z,69.35
2023-10-29T10:51:00.188Z,67.86
2023-10-29T10:53:28.247Z,68.00
2023-10-29T10:56:04.028Z,67.68
2023-10-29T10:58:32.577Z,68.33
2023-10-29T11:01:00.922Z,68.74
2023-10-29T11:03:34.620Z,68.86
2023-10-29T11:06:02.633Z,68.65
2023-10-29T11:08:30.684Z,68.30
2023-10-29T11:10:59.871Z,68.02
2023-10-29T11:13:28.310Z,67.80
2023-10-29T11:15:56.922Z,67.48
2023-10-29T11:18:34.032Z,66.98
2023-10-29T11:21:04.904Z,66.15
2023-10-29T11:23:33.983Z,65.10
2023-10-29T11:26:21.934Z,63.52
2023-10-29T11:28:51.156Z,63.11
2023-10-29T11:31:21.087Z,62.38
2023-10-29T11:33:57.731Z,62.27
2023-10-29T11:36:32.814Z,61.43
2023-10-29T11:39:23.342Z,61.15
2023-10-29T11:41:51.208Z,61.64
2023-10-29T11:44:31.320Z,60.99
2023-10-29T11:47:05.017Z,61.26
2023-10-29T11:49:52.705Z,61.35
2023-10-29T11:52:21.015Z,63.04
2023-10-29T11:54:49.116Z,62.47
2023-10-29T11:57:17.484Z,62.68
2023-10-29T12:00:01.800Z,62.59
2023-10-29T12:02:30.846Z,63.27
2023-10-29T12:04:58.512Z,63.21
2023-10-29T12:07:27.267Z,63.60
2023-10-29T12:10:07.488Z,63.18
2023-10-29T12:12:36.191Z,63.92
2023-10-29T12:15:04.200Z,63.43
2023-10-29T12:17:31.831Z,63.08
2023-10-29T12:19:59.397Z,63.51
2023-10-29T12:22:32.173Z,62.99
2023-10-29T12:25:04.221Z,62.96
2023-10-29T12:27:32.626Z,62.74
2023-10-29T12:30:00.495Z,62.78
2023-10-29T12:32:28.773Z,61.80
2023-10-29T12:34:58.428Z,61.99
2023-10-29T12:37:28.267Z,62.00
2023-10-29T12:39:57.960Z,62.03
2023-10-29T12:42:54.486Z,61.61
2023-10-29T12:45:31.977Z,62.05
2023-10-29T12:48:13.099Z,62.04
2023-10-29T12:50:53.417Z,61.83
2023-10-29T12:53:23.033Z,61.71
2023-10-29T12:55:51.732Z,61.71
2023-10-29T12:58:22.526Z,61.89
2023-10-29T13:00:56.239Z,61.59
2023-10-29T13:03:26.358Z,61.75
2023-10-29T13:05:56.098Z,61.68
2023-10-29T13:08:27.957Z,61.77
2023-10-29T13:10:58.572Z,61.69
2023-10-29T13:13:27.775Z,61.42
2023-10-29T13:15:56.086Z,61.43
2023-10-29T13:18:23.794Z,61.49
2023-10-29T13:21:01.566Z,61.28
2023-10-29T13:23:29.770Z,61.41
2023-10-29T13:25:57.867Z,61.22
2023-10-29T13:28:25.475Z,61.49
2023-10-29T13:30:56.514Z,61.64
2023-10-29T13:33:25.579Z,61.79
2023-10-29T13:35:53.329Z,62.00
2023-10-29T13:38:21.492Z,61.72
2023-10-29T13:40:49.224Z,61.50
2023-10-29T13:43:16.810Z,61.57
2023-10-29T13:45:44.381Z,61.48
2023-10-29T13:48:12.100Z,61.71
2023-10-29T13:50:40.116Z,61.27
2023-10-29T13:53:08.019Z,61.58
2023-10-29T13:55:35.616Z,61.33
2023-10-29T13:58:03.903Z,61.37
2023-10-29T14:00:32.386Z,61.42
2023-10-29T14:03:00.489Z,61.89
2023-10-29T14:05:28.715Z,62.19
2023-10-29T14:07:58.884Z,62.49
2023-10-29T14:10:26.751Z,62.76
2023-10-29T14:12:55.017Z,62.88
2023-10-29T14:15:22.621Z,62.98
2023-10-29T14:17:50.305Z,63.10
2023-10-29T14:20:22.087Z,63.31
2023-10-29T14:22:54.714Z,63.19
2023-10-29T14:25:22.241Z,63.10
2023-10-29T14:27:49.920Z,62.96
2023-10-29T14:30:17.680Z,63.17
2023-10-29T14:32:45.451Z,63.42
2023-10-29T14:35:14.115Z,63.83
2023-10-29T14:37:41.989Z,63.82
2023-10-29T14:40:09.792Z,63.88
2023-10-29T14:42:37.454Z,63.95
2023-10-29T14:45:08.037Z,64.21
2023-10-29T14:47:35.651Z,64.06
2023-10-29T14:50:03.821Z,64.17
2023-10-29T14:52:31.408Z,64.13
2023-10-29T14:54:59.084Z,64.03
2023-10-29T14:57:29.803Z,64.23
2023-10-29T14:59:58.309Z,64.49
2023-10-29T15:02:26.054Z,64.81
2023-10-29T15:04:56.824Z,64.51
2023-10-29T15:07:24.578Z,65.05
2023-10-29T15:09:52.420Z,65.27
2023-10-29T15:12:20.686Z,64.93
2023-10-29T15:14:48.704Z,65.31
2023-10-29T15:17:21.152Z,65.29
2023-10-29T15:19:55.768Z,65.19
2023-10-29T15:22:23.422Z,65.09
2023-10-29T15:24:51.614Z,65.16
2023-10-29T15:27:19.528Z,65.13
2023-10-29T15:29:48.173Z,64.97
2023-10-29T15:32:15.779Z,65.17
2023-10-29T15:34:43.357Z,64.89
2023-10-29T15:37:11.174Z,65.24
2023-10-29T15:39:39.053Z,65.24
2023-10-29T15:42:07.053Z,65.23
2023-10-29T15:44:34.633Z,65.44
2023-10-29T15:47:02.181Z,65.39
2023-10-29T15:49:30.139Z,65.55
2023-10-29T15:51:58.800Z,65.71
2023-10-29T15:54:28.834Z,65.58
2023-10-29T15:56:56.377Z,65.68
2023-10-29T15:59:24.831Z,65.74
2023-10-29T16:01:53.601Z,65.94
2023-10-29T16:04:21.344Z,66.08
2023-10-29T16:06:48.936Z,66.19
2023-10-29T16:09:16.899Z,66.11
2023-10-29T16:11:48.417Z,66.45
2023-10-29T16:14:16.170Z,66.69
2023-10-29T16:16:43.992Z,66.77
2023-10-29T16:19:12.049Z,66.80
2023-10-29T16:21:39.705Z,66.70
2023-10-29T16:24:07.637Z,66.52
2023-10-29T16:26:36.675Z,66.69
2023-10-29T16:29:04.241Z,67.16
2023-10-29T16:31:31.894Z,67.31
2023-10-29T16:33:59.621Z,67.67
2023-10-29T16:36:27.326Z,67.63
2023-10-29T16:38:54.940Z,68.17
2023-10-29T16:41:22.532Z,68.29
2023-10-29T16:43:51.218Z,68.58
2023-10-29T16:46:19.005Z,68.73
2023-10-29T16:48:47.437Z,69.39
2023-10-29T16:51:15.191Z,69.74
2023-10-29T16:53:42.767Z,70.13
2023-10-29T16:56:10.482Z,70.14
2023-10-29T16:58:40.374Z,70.79
2023-10-29T17:01:13.283Z,70.90
2023-10-29T17:03:41.395Z,70.83
2023-10-29T17:06:09.247Z,70.37
2023-10-29T17:08:36.917Z,70.06
2023-10-29T17:11:04.626Z,69.71
2023-10-29T17:13:32.228Z,69.83
2023-10-29T17:16:06.591Z,69.65
2023-10-29T17:18:35.430Z,69.78
2023-10-29T17:21:03.508Z,70.13
2023-10-29T17:23:31.282Z,69.95
2023-10-29T17:25:58.938Z,69.75
2023-10-29T17:28:26.987Z,69.38
2023-10-29T17:30:55.033Z,69.42
2023-10-29T17:33:23.318Z,69.23
2023-10-29T17:35:51.217Z,69.06
2023-10-29T17:38:18.774Z,69.31
2023-10-29T17:40:46.532Z,69.47
2023-10-29T17:43:15.219Z,69.86
2023-10-29T17:45:44.551Z,70.15
2023-10-29T17:48:14.242Z,70.21
2023-10-29T17:50:43.071Z,70.77
2023-10-29T17:53:11.310Z,70.86
2023-10-29T17:55:38.960Z,71.25
2023-10-29T17:58:06.707Z,71.25
2023-10-29T18:00:34.631Z,71.31
2023-10-29T18:03:02.558Z,71.41
2023-10-29T18:05:30.288Z,71.54
2023-10-29T18:07:57.845Z,71.71
2023-10-29T18:10:27.066Z,71.79
2023-10-29T18:12:54.732Z,72.01
2023-10-29T18:15:22.337Z,72.49
2023-10-29T18:17:50.100Z,72.13
2023-10-29T18:20:17.705Z,72.09
2023-10-29T18:22:45.372Z,72.04
2023-10-29T18:25:12.914Z,72.46
2023-10-29T18:27:41.238Z,72.59
2023-10-29T18:30:11.614Z,72.69
2023-10-29T18:32:39.294Z,72.76
2023-10-29T18:35:07.140Z,73.21
2023-10-29T18:37:34.999Z,72.71
2023-10-29T18:40:02.555Z,73.09
2023-10-29T18:42:30.393Z,72.86
2023-10-29T18:44:58.062Z,72.50
2023-10-29T18:47:25.729Z,72.38
2023-10-29T18:49:53.384Z,72.24
2023-10-29T18:52:20.979Z,72.83
2023-10-29T18:54:48.556Z,72.32
2023-10-29T18:57:16.872Z,71.61
2023-10-29T18:59:44.585Z,72.08
2023-10-29T19:02:12.343Z,72.58
2023-10-29T19:04:40.215Z,72.87
2023-10-29T19:07:11.337Z,73.30
2023-10-29T19:09:39.023Z,74.00
2023-10-29T19:12:07.482Z,74.39
2023-10-29T19:14:37.325Z,74.74
2023-10-29T19:17:09.735Z,75.25
2023-10-29T19:19:41.844Z,75.77
2023-10-29T19:22:10.755Z,75.98
2023-10-29T19:24:39.933Z,76.09
2023-10-29T19:27:08.200Z,76.64
2023-10-29T19:29:38.196Z,76.35
2023-10-29T19:32:06.115Z,76.03
2023-10-29T19:34:33.982Z,76.52
2023-10-29T19:37:01.844Z,76.57
2023-10-29T19:39:32.882Z,76.77
2023-10-29T19:42:00.833Z,76.63
2023-10-29T19:44:30.046Z,76.61
2023-10-29T19:46:57.733Z,76.53
2023-10-29T19:49:25.375Z,76.36
2023-10-29T19:51:53.031Z,76.09
2023-10-29T19:54:20.913Z,76.20
2023-10-29T19:56:48.665Z,76.51
2023-10-29T19:59:16.329Z,76.62
2023-10-29T20:01:43.915Z,76.58
2023-10-29T20:04:11.558Z,76.42
2023-10-29T20:06:39.395Z,76.92
2023-10-29T20:09:07.327Z,76.83
2023-10-29T20:11:35.023Z,76.86
2023-10-29T20:14:03.396Z,76.93
2023-10-29T20:16:34.019Z,76.53
2023-10-29T20:19:01.991Z,76.32
2023-10-29T20:21:32.881Z,76.05
2023-10-29T20:24:00.462Z,75.62
2023-10-29T20:26:28.395Z,75.22
2023-10-29T20:28:56.152Z,75.37
2023-10-29T20:31:24.575Z,75.93
2023-10-29T20:33:52.526Z,76.41
2023-10-29T20:36:22.800Z,76.44
2023-10-29T20:38:50.739Z,77.09
2023-10-29T20:41:19.149Z,77.68
2023-10-29T20:43:46.914Z,78.09
2023-10-29T20:46:14.986Z,77.46
2023-10-29T20:48:45.171Z,76.88
2023-10-29T20:51:12.847Z,76.39
2023-10-29T20:53:40.660Z,75.82
2023-10-29T20:56:13.532Z,75.78
2023-10-29T20:58:41.390Z,75.15
2023-10-29T21:01:13.286Z,75.31
2023-10-29T21:03:41.278Z,75.01
2023-10-29T21:06:09.387Z,75.20
2023-10-29T21:08:37.064Z,75.87
2023-10-29T21:11:04.920Z,75.67
2023-10-29T21:13:32.690Z,75.50
2023-10-29T21:16:06.913Z,75.58
2023-10-29T21:18:38.414Z,75.84
2023-10-29T21:21:06.488Z,76.01
2023-10-29T21:23:34.235Z,75.79
2023-10-29T21:26:02.391Z,75.78
2023-10-29T21:28:30.335Z,75.84
2023-10-29T21:30:58.155Z,75.75
2023-10-29T21:33:26.177Z,75.59
2023-10-29T21:35:53.811Z,75.51
2023-10-29T21:38:22.338Z,75.31
2023-10-29T21:40:50.050Z,75.41
2023-10-29T21:43:19.811Z,75.07
2023-10-29T21:45:47.380Z,75.31
2023-10-29T21:48:15.149Z,75.39
2023-10-29T21:50:54.272Z,75.46
2023-10-29T21:53:22.194Z,75.42
2023-10-29T21:55:50.181Z,75.27
2023-10-29T21:58:20.965Z,74.86
2023-10-29T22:00:54.870Z,74.58
2023-10-29T22:03:23.018Z,74.35
2023-10-29T22:06:00.881Z,74.21
2023-10-29T22:08:29.439Z,74.37
2023-10-29T22:11:02.192Z,74.17
2023-10-29T22:13:33.626Z,74.44
2023-10-29T22:16:06.658Z,73.91
2023-10-29T22:18:34.608Z,73.91
2023-10-29T22:21:04.600Z,73.43
2023-10-29T22:23:32.659Z,73.52
2023-10-29T22:26:00.706Z,73.28
2023-10-29T22:28:28.778Z,73.25
2023-10-29T22:31:04.299Z,72.87
2023-10-29T22:33:33.861Z,73.48
2023-10-29T22:36:03.750Z,73.44
2023-10-29T22:38:31.761Z,73.08
2023-10-29T22:41:09.714Z,73.03
2023-10-29T22:43:37.452Z,73.25
2023-10-29T22:46:05.177Z,73.08
2023-10-29T22:48:33.031Z,72.95
2023-10-29T22:51:04.238Z,72.65
2023-10-29T22:53:31.862Z,72.83
2023-10-29T22:56:03.186Z,72.56
2023-10-29T22:58:31.204Z,72.88
2023-10-29T23:00:59.117Z,72.63
2023-10-29T23:03:27.858Z,72.60
2023-10-29T23:05:56.170Z,72.41
2023-10-29T23:08:24.395Z,72.35
2023-10-29T23:10:51.997Z,72.55
2023-10-29T23:13:19.997Z,72.32
2023-10-29T23:15:47.579Z,72.02
2023-10-29T23:18:15.194Z,72.27
2023-10-29T23:20:42.873Z,72.19
2023-10-29T23:23:16.883Z,72.03
2023-10-29T23:25:46.005Z,72.42
2023-10-29T23:28:26.354Z,72.58
2023-10-29T23:30:58.713Z,72.39
2023-10-29T23:33:26.697Z,72.58
2023-10-29T23:35:57.981Z,72.18
2023-10-29T23:38:27.291Z,72.04
2023-10-29T23:40:54.882Z,72.13
2023-10-29T23:43:24.119Z,72.31
2023-10-29T23:45:52.116Z,72.17
2023-10-29T23:48:19.759Z,72.07
2023-10-29T23:50:50.391Z,72.22
2023-10-29T23:53:18.024Z,72.32
2023-10-29T23:55:45.664Z,71.67
2023-10-29T23:58:15.865Z,72.06
